Time;durP1;ratioP1;P1;durP2;ratioP2;P2;SDS_P1;SDS_P2;PMS_P1;PMS_P2;Temp;Humidity;BMP_temperature;BMP_pressure;BME280_temperature;BME280_humidity;BME280_pressure;Samples;Min_cycle;Max_cycle;Signal;HPM_P1;HPM_P2
2022/01/20 00:00:53;;;;;;;36.83;20.63;;;;;;;;;;10198224;29;20048;-69
2022/01/20 00:27:23;;;;;;;47.72;24.67;;;;;;;;;;10206520;29;20052;-69
2022/01/20 00:32:33;;;;;;;39.88;20.83;;;;;;;;;;10158334;29;20064;-69
2022/01/20 00:37:35;;;;;;;42.40;23.15;;;;;;;;;;10193401;29;20170;-69
2022/01/20 00:42:38;;;;;;;43.75;24.63;;;;;;;;;;10183132;29;20363;-69
2022/01/20 00:47:42;;;;;;;51.80;25.83;;;;;;;;;;10158512;29;20045;-69
2022/01/20 00:52:44;;;;;;;47.60;24.52;;;;;;;;;;10192651;29;20063;-69
2022/01/20 00:57:46;;;;;;;44.97;24.02;;;;;;;;;;10195429;29;20407;-70
2022/01/20 01:02:50;;;;;;;47.85;23.33;;;;;;;;;;10193867;29;20059;-69
2022/01/20 01:07:54;;;;;;;40.88;23.23;;;;;;;;;;10160200;29;20284;-69
2022/01/20 01:13:01;;;;;;;39.45;22.48;;;;;;;;;;10190894;29;20075;-69
2022/01/20 01:23:30;;;;;;;36.05;21.35;;;;;;;;;;10202104;29;20065;-69
2022/01/20 01:28:33;;;;;;;39.38;22.40;;;;;;;;;;10179102;29;20055;-70
2022/01/20 01:33:39;;;;;;;43.42;24.30;;;;;;;;;;10195334;29;20382;-70
2022/01/20 01:38:42;;;;;;;45.00;23.40;;;;;;;;;;10207221;29;20048;-70
2022/01/20 01:43:47;;;;;;;48.35;24.02;;;;;;;;;;10193688;29;20090;-70
2022/01/20 01:48:51;;;;;;;38.95;22.25;;;;;;;;;;10187275;29;20083;-69
2022/01/20 01:53:53;;;;;;;35.97;21.23;;;;;;;;;;10194691;29;20044;-70
2022/01/20 01:58:56;;;;;;;40.25;19.33;;;;;;;;;;10175115;29;20100;-69
2022/01/20 02:04:00;;;;;;;41.78;24.40;;;;;;;;;;10191827;29;20067;-70
2022/01/20 02:09:18;;;;;;;35.40;20.97;;;;;;;;;;10189306;29;20056;-68
2022/01/20 02:19:55;;;;;;;35.83;20.17;;;;;;;;;;10121448;29;20068;-70
2022/01/20 02:24:57;;;;;;;34.28;19.70;;;;;;;;;;10148332;29;20056;-70
2022/01/20 02:30:00;;;;;;;28.08;17.83;;;;;;;;;;10147903;29;20128;-69
2022/01/20 02:35:08;;;;;;;28.83;18.55;;;;;;;;;;10121616;29;20064;-70
2022/01/20 02:40:33;;;;;;;30.73;18.15;;;;;;;;;;10121198;29;20061;-70
2022/01/20 02:45:36;;;;;;;30.15;17.73;;;;;;;;;;10139250;29;20091;-70
2022/01/20 02:50:40;;;;;;;25.52;17.25;;;;;;;;;;10152329;29;20106;-70
2022/01/20 02:55:42;;;;;;;26.98;16.05;;;;;;;;;;10191911;29;20390;-70
2022/01/20 03:00:45;;;;;;;31.40;16.77;;;;;;;;;;10192726;29;20200;-70
2022/01/20 03:05:49;;;;;;;26.58;14.40;;;;;;;;;;10181325;29;20055;-70
2022/01/20 03:10:51;;;;;;;27.40;13.40;;;;;;;;;;10191477;29;20052;-70
2022/01/20 03:15:54;;;;;;;25.33;8.93;;;;;;;;;;10192672;29;20080;-70
2022/01/20 03:20:57;;;;;;;9.48;4.70;;;;;;;;;;10190483;29;20347;-70
2022/01/20 03:26:00;;;;;;;6.82;3.85;;;;;;;;;;10172638;29;20048;-69
2022/01/20 03:31:02;;;;;;;10.55;3.20;;;;;;;;;;10192206;29;20082;-69
2022/01/20 03:36:06;;;;;;;10.70;2.88;;;;;;;;;;10190725;29;20075;-69
2022/01/20 03:41:09;;;;;;;9.82;2.50;;;;;;;;;;10190792;29;20424;-69
2022/01/20 03:46:13;;;;;;;15.27;3.70;;;;;;;;;;10189643;29;20044;-69
2022/01/20 03:51:20;;;;;;;10.98;4.55;;;;;;;;;;10182018;29;20048;-69
2022/01/20 03:56:24;;;;;;;10.48;2.60;;;;;;;;;;10204469;29;20044;-70
2022/01/20 04:01:26;;;;;;;13.07;2.38;;;;;;;;;;10191283;29;20048;-70
2022/01/20 04:06:30;;;;;;;8.68;2.63;;;;;;;;;;10195070;29;20052;-69
2022/01/20 04:11:33;;;;;;;7.38;2.20;;;;;;;;;;10165296;29;20063;-70
2022/01/20 04:16:49;;;;;;;20.65;2.95;;;;;;;;;;10198347;29;20043;-69
2022/01/20 04:21:53;;;;;;;9.38;2.58;;;;;;;;;;10196656;29;20256;-70
2022/01/20 04:26:55;;;;;;;9.88;2.25;;;;;;;;;;10197402;29;20219;-69
2022/01/20 04:31:58;;;;;;;11.55;2.30;;;;;;;;;;10195971;29;20281;-69
2022/01/20 04:37:04;;;;;;;12.98;2.42;;;;;;;;;;10203046;29;20340;-69
2022/01/20 04:42:07;;;;;;;13.40;2.70;;;;;;;;;;10177121;29;20111;-70
2022/01/20 04:47:20;;;;;;;22.23;3.22;;;;;;;;;;10189668;29;20051;-70
2022/01/20 04:57:59;;;;;;;12.43;2.67;;;;;;;;;;10049162;29;20102;-69
2022/01/20 05:03:04;;;;;;;12.43;3.10;;;;;;;;;;10073277;29;20316;-69
2022/01/20 05:08:07;;;;;;;15.30;2.83;;;;;;;;;;10073034;29;20088;-69
2022/01/20 05:13:12;;;;;;;7.43;2.47;;;;;;;;;;10076454;29;20252;-68
2022/01/20 05:18:14;;;;;;;12.90;2.88;;;;;;;;;;10076501;29;20056;-70
2022/01/20 05:23:18;;;;;;;14.48;2.83;;;;;;;;;;10074769;29;20093;-68
2022/01/20 05:28:20;;;;;;;10.20;2.58;;;;;;;;;;10154314;29;20186;-70
2022/01/20 05:33:22;;;;;;;16.48;2.58;;;;;;;;;;10194669;29;20087;-70
2022/01/20 05:38:26;;;;;;;12.60;3.03;;;;;;;;;;10166554;29;20043;-70
2022/01/20 05:43:28;;;;;;;11.45;3.33;;;;;;;;;;10195766;29;20135;-69
2022/01/20 05:48:34;;;;;;;15.25;2.83;;;;;;;;;;10194086;29;20067;-70
2022/01/20 05:53:38;;;;;;;12.73;3.28;;;;;;;;;;10208294;29;20056;-69
2022/01/20 05:58:40;;;;;;;13.80;3.00;;;;;;;;;;10193763;29;20087;-69
2022/01/20 06:03:43;;;;;;;18.65;6.07;;;;;;;;;;10194017;29;20316;-69
2022/01/20 06:08:47;;;;;;;18.05;4.70;;;;;;;;;;10191590;29;20274;-69
2022/01/20 06:13:49;;;;;;;18.98;4.25;;;;;;;;;;10192437;29;20040;-69
2022/01/20 06:18:52;;;;;;;14.35;5.05;;;;;;;;;;10189814;29;20281;-70
2022/01/20 06:23:56;;;;;;;14.18;4.03;;;;;;;;;;10153592;29;20053;-69
2022/01/20 06:28:58;;;;;;;8.07;3.85;;;;;;;;;;10180223;29;20331;-69
2022/01/20 06:34:00;;;;;;;8.90;4.25;;;;;;;;;;10198666;29;20091;-69
2022/01/20 06:39:04;;;;;;;4.93;2.42;;;;;;;;;;10190982;29;20063;-69
2022/01/20 06:44:07;;;;;;;8.13;4.38;;;;;;;;;;10192419;29;20044;-69
2022/01/20 06:49:10;;;;;;;13.32;5.60;;;;;;;;;;10192544;29;20048;-72
2022/01/20 06:54:14;;;;;;;10.77;4.15;;;;;;;;;;10165484;29;20085;-70
2022/01/20 06:59:18;;;;;;;15.13;4.75;;;;;;;;;;10152391;29;20064;-70
2022/01/20 07:04:21;;;;;;;10.32;4.10;;;;;;;;;;10152868;29;20053;-68
2022/01/20 07:09:24;;;;;;;12.20;3.65;;;;;;;;;;10188825;29;20079;-68
2022/01/20 07:14:29;;;;;;;8.98;3.80;;;;;;;;;;10190870;29;20048;-65
2022/01/20 07:19:31;;;;;;;10.73;2.90;;;;;;;;;;10192560;29;20044;-69
2022/01/20 07:24:35;;;;;;;8.82;2.85;;;;;;;;;;10165301;29;20055;-68
2022/01/20 07:29:37;;;;;;;13.25;3.53;;;;;;;;;;10173503;29;20056;-68
2022/01/20 07:34:40;;;;;;;10.13;3.30;;;;;;;;;;10168398;29;20113;-69
2022/01/20 07:39:44;;;;;;;12.38;3.78;;;;;;;;;;10164677;29;20049;-69
2022/01/20 07:44:47;;;;;;;15.68;4.05;;;;;;;;;;10159821;29;20045;-68
2022/01/20 07:49:49;;;;;;;15.15;4.55;;;;;;;;;;10186731;29;20083;-67
2022/01/20 07:54:52;;;;;;;14.68;4.03;;;;;;;;;;10194141;29;20068;-68
2022/01/20 07:59:55;;;;;;;11.60;3.13;;;;;;;;;;10196862;29;20103;-67
2022/01/20 08:04:57;;;;;;;17.92;4.75;;;;;;;;;;10197262;29;20092;-72
2022/01/20 08:10:01;;;;;;;12.90;3.38;;;;;;;;;;10193928;29;20040;-73
2022/01/20 08:15:03;;;;;;;11.38;2.75;;;;;;;;;;10178642;29;20055;-70
2022/01/20 08:20:07;;;;;;;11.88;3.08;;;;;;;;;;10192612;29;20064;-70
2022/01/20 08:25:13;;;;;;;10.07;2.80;;;;;;;;;;10197225;29;20272;-69
2022/01/20 08:30:18;;;;;;;7.38;2.70;;;;;;;;;;10206860;29;20078;-70
2022/01/20 08:35:23;;;;;;;5.17;2.40;;;;;;;;;;10195640;29;20091;-70
2022/01/20 08:40:27;;;;;;;4.03;1.80;;;;;;;;;;10196946;29;20295;-69
2022/01/20 08:45:31;;;;;;;8.60;2.10;;;;;;;;;;10187068;29;20063;-68
2022/01/20 08:50:34;;;;;;;8.00;1.87;;;;;;;;;;10194737;29;20071;-67
2022/01/20 08:55:38;;;;;;;9.73;3.08;;;;;;;;;;10195522;29;20099;-69
2022/01/20 09:00:40;;;;;;;14.70;3.72;;;;;;;;;;10193102;29;20103;-68
2022/01/20 09:05:42;;;;;;;7.70;2.80;;;;;;;;;;10198826;29;20052;-68
2022/01/20 09:10:53;;;;;;;10.57;3.95;;;;;;;;;;10195321;29;20063;-68
2022/01/20 09:15:56;;;;;;;7.78;3.45;;;;;;;;;;10194328;29;20044;-68
2022/01/20 09:20:58;;;;;;;6.20;2.53;;;;;;;;;;10155139;29;20103;-68
2022/01/20 09:26:02;;;;;;;7.38;2.58;;;;;;;;;;10180567;29;20088;-68
2022/01/20 09:31:04;;;;;;;6.00;1.98;;;;;;;;;;10194128;29;20075;-67
2022/01/20 09:36:10;;;;;;;3.83;1.83;;;;;;;;;;10193975;29;20056;-69
2022/01/20 09:41:13;;;;;;;9.88;2.65;;;;;;;;;;10207212;29;20048;-69
2022/01/20 09:46:16;;;;;;;5.22;2.20;;;;;;;;;;10182794;29;20248;-67
2022/01/20 09:51:18;;;;;;;10.30;3.08;;;;;;;;;;10192556;29;20079;-68
2022/01/20 09:56:22;;;;;;;5.82;2.95;;;;;;;;;;10202982;29;20078;-69
2022/01/20 10:01:47;;;;;;;7.45;2.58;;;;;;;;;;10181811;29;20359;-69
2022/01/20 10:06:56;;;;;;;6.68;2.47;;;;;;;;;;10184630;29;20079;-68
2022/01/20 10:12:00;;;;;;;9.93;2.67;;;;;;;;;;10191922;29;20094;-68
2022/01/20 10:17:02;;;;;;;7.22;2.92;;;;;;;;;;10181788;29;20323;-68
2022/01/20 10:22:11;;;;;;;7.55;2.60;;;;;;;;;;10191720;29;20084;-68
2022/01/20 10:27:15;;;;;;;5.55;2.22;;;;;;;;;;10186645;29;20069;-68
2022/01/20 10:32:17;;;;;;;6.47;2.10;;;;;;;;;;10191445;29;20351;-67
2022/01/20 10:37:24;;;;;;;6.15;1.75;;;;;;;;;;10213875;29;20277;-67
2022/01/20 10:42:28;;;;;;;6.93;2.00;;;;;;;;;;10204955;29;20067;-69
2022/01/20 10:47:33;;;;;;;7.85;2.50;;;;;;;;;;10188128;29;20040;-68
2022/01/20 10:52:37;;;;;;;12.48;3.10;;;;;;;;;;10188376;29;20048;-68
2022/01/20 10:57:41;;;;;;;11.67;4.20;;;;;;;;;;10193430;29;20051;-69
2022/01/20 11:02:43;;;;;;;14.93;4.95;;;;;;;;;;10190714;29;20067;-68
2022/01/20 11:07:47;;;;;;;15.93;4.20;;;;;;;;;;10193773;28;20048;-68
2022/01/20 11:12:50;;;;;;;12.73;5.65;;;;;;;;;;10176453;29;20320;-68
2022/01/20 11:17:54;;;;;;;7.63;2.88;;;;;;;;;;10189719;29;20075;-68
2022/01/20 11:22:59;;;;;;;15.30;6.18;;;;;;;;;;10171753;29;20072;-67
2022/01/20 11:28:08;;;;;;;;;;;;;;;;;;10188666;29;20047;-69
2022/01/20 11:33:12;;;;;;;13.52;4.82;;;;;;;;;;10212805;29;19926;-67
2022/01/20 11:38:18;;;;;;;10.05;4.30;;;;;;;;;;10181271;29;20049;-68
2022/01/20 11:43:33;;;;;;;13.90;4.60;;;;;;;;;;10183151;29;20074;-67
2022/01/20 11:48:36;;;;;;;11.05;3.35;;;;;;;;;;10190684;29;20059;-68
2022/01/20 11:53:41;;;;;;;11.70;3.70;;;;;;;;;;10191204;29;20059;-68
2022/01/20 11:58:51;;;;;;;11.38;3.33;;;;;;;;;;10201706;29;20163;-67
2022/01/20 12:03:55;;;;;;;9.85;3.30;;;;;;;;;;10203401;29;20048;-67
2022/01/20 12:09:00;;;;;;;4.70;2.40;;;;;;;;;;10191184;29;20071;-65
2022/01/20 12:14:06;;;;;;;7.45;2.83;;;;;;;;;;10166200;29;20328;-68
2022/01/20 12:19:11;;;;;;;8.40;3.42;;;;;;;;;;10202295;29;20048;-67
2022/01/20 12:24:13;;;;;;;8.68;3.50;;;;;;;;;;10181518;29;20079;-67
2022/01/20 12:29:17;;;;;;;12.68;5.00;;;;;;;;;;10190069;29;20068;-67
2022/01/20 12:34:20;;;;;;;12.25;3.42;;;;;;;;;;10176738;29;20079;-65
2022/01/20 12:39:25;;;;;;;11.35;3.45;;;;;;;;;;10197489;29;20099;-67
2022/01/20 12:44:41;;;;;;;6.90;2.88;;;;;;;;;;10196594;29;20063;-67
2022/01/20 12:49:44;;;;;;;;;;;;;;;;;;10207997;29;20068;-66
2022/01/20 12:54:49;;;;;;;8.48;2.80;;;;;;;;;;10196695;29;19934;-67
2022/01/20 12:59:54;;;;;;;8.32;3.40;;;;;;;;;;10208791;29;20074;-68
2022/01/20 13:04:58;;;;;;;7.35;2.97;;;;;;;;;;10197207;29;20068;-67
2022/01/20 13:10:17;;;;;;;8.95;3.28;;;;;;;;;;10186774;29;20239;-68
2022/01/20 13:15:24;;;;;;;13.60;3.65;;;;;;;;;;10196194;29;20331;-68
2022/01/20 13:20:26;;;;;;;14.60;5.03;;;;;;;;;;10208307;29;20044;-66
2022/01/20 13:25:31;;;;;;;12.10;4.90;;;;;;;;;;10178724;29;20087;-67
2022/01/20 13:30:37;;;;;;;16.17;5.50;;;;;;;;;;10195390;29;20076;-67
2022/01/20 13:35:40;;;;;;;13.23;4.57;;;;;;;;;;10191148;29;20056;-66
2022/01/20 13:40:45;;;;;;;7.70;3.28;;;;;;;;;;10195314;29;20324;-66
2022/01/20 13:45:49;;;;;;;12.93;3.90;;;;;;;;;;10195566;29;20060;-67
2022/01/20 13:50:59;;;;;;;11.02;4.03;;;;;;;;;;10194372;29;20064;-68
2022/01/20 13:56:07;;;;;;;8.15;3.40;;;;;;;;;;10207618;29;20248;-68
2022/01/20 14:01:12;;;;;;;9.50;3.53;;;;;;;;;;10193067;29;20104;-68
2022/01/20 14:06:15;;;;;;;5.82;2.47;;;;;;;;;;10206526;29;20051;-66
2022/01/20 14:11:17;;;;;;;8.23;2.83;;;;;;;;;;10193812;29;20084;-68
2022/01/20 14:16:21;;;;;;;8.35;3.45;;;;;;;;;;10195840;29;20091;-67
2022/01/20 14:21:23;;;;;;;11.00;3.20;;;;;;;;;;10193822;29;20086;-66
2022/01/20 14:26:29;;;;;;;4.38;2.30;;;;;;;;;;10192675;29;20387;-69
2022/01/20 14:31:33;;;;;;;9.15;2.70;;;;;;;;;;10200606;29;20120;-68
2022/01/20 14:36:35;;;;;;;13.63;4.60;;;;;;;;;;10191883;29;20333;-68
2022/01/20 14:41:38;;;;;;;8.60;3.70;;;;;;;;;;10193391;29;20115;-68
2022/01/20 14:46:42;;;;;;;14.23;3.75;;;;;;;;;;10191753;29;20044;-69
2022/01/20 14:51:44;;;;;;;10.40;3.20;;;;;;;;;;10191001;29;20071;-70
2022/01/20 14:56:46;;;;;;;15.23;2.85;;;;;;;;;;10192103;29;20044;-69
2022/01/20 15:01:50;;;;;;;23.45;8.48;;;;;;;;;;10192589;29;20044;-68
2022/01/20 15:06:52;;;;;;;27.23;12.85;;;;;;;;;;10170448;29;20044;-68
2022/01/20 15:11:54;;;;;;;10.07;4.93;;;;;;;;;;10182320;29;20172;-70
2022/01/20 15:16:58;;;;;;;15.45;6.82;;;;;;;;;;10192301;29;20060;-69
2022/01/20 15:22:00;;;;;;;9.27;4.65;;;;;;;;;;10191939;29;20112;-67
2022/01/20 15:27:04;;;;;;;9.68;2.88;;;;;;;;;;10189758;29;20052;-67
2022/01/20 15:32:08;;;;;;;11.88;3.05;;;;;;;;;;10191179;29;20040;-67
2022/01/20 15:37:10;;;;;;;12.57;3.72;;;;;;;;;;10169828;29;20402;-67
2022/01/20 15:42:12;;;;;;;244.63;20.65;;;;;;;;;;10191131;29;20087;-68
2022/01/20 15:47:18;;;;;;;17.73;5.18;;;;;;;;;;10190509;29;20243;-67
2022/01/20 15:52:20;;;;;;;;;;;;;;;;;;10192640;29;20111;-68
2022/01/20 15:57:23;;;;;;;6.30;3.10;;;;;;;;;;10188761;29;19954;-69
2022/01/20 16:02:26;;;;;;;6.78;3.28;;;;;;;;;;10194550;29;20068;-67
2022/01/20 16:07:29;;;;;;;9.30;5.00;;;;;;;;;;10197077;29;20056;-67
2022/01/20 16:12:31;;;;;;;13.43;6.80;;;;;;;;;;10197166;29;20048;-67
2022/01/20 16:17:35;;;;;;;14.77;6.72;;;;;;;;;;10197844;29;20052;-66
2022/01/20 16:22:38;;;;;;;8.68;3.40;;;;;;;;;;10197045;29;20063;-68
2022/01/20 16:27:40;;;;;;;9.90;3.85;;;;;;;;;;10196685;29;20247;-67
2022/01/20 16:32:45;;;;;;;8.52;2.80;;;;;;;;;;10197901;29;20056;-66
2022/01/20 16:37:48;;;;;;;7.97;3.25;;;;;;;;;;10197550;29;20052;-67
2022/01/20 16:42:51;;;;;;;9.85;4.53;;;;;;;;;;10213059;29;20063;-67
2022/01/20 16:47:54;;;;;;;10.00;4.18;;;;;;;;;;10211534;28;20239;-67
2022/01/20 16:52:57;;;;;;;13.18;4.22;;;;;;;;;;10196740;29;20056;-69
2022/01/20 16:57:59;;;;;;;12.73;4.25;;;;;;;;;;10196340;29;20044;-66
2022/01/20 17:03:04;;;;;;;41.92;12.30;;;;;;;;;;10195777;29;20063;-68
2022/01/20 17:08:07;;;;;;;43.08;12.95;;;;;;;;;;10209702;29;20115;-68
2022/01/20 17:13:10;;;;;;;29.30;8.85;;;;;;;;;;10192845;29;20044;-67
2022/01/20 17:18:15;;;;;;;17.95;7.72;;;;;;;;;;10207232;29;20059;-67
2022/01/20 17:23:18;;;;;;;31.40;9.23;;;;;;;;;;10225173;29;20134;-68
2022/01/20 17:28:20;;;;;;;12.38;3.85;;;;;;;;;;10229430;28;20052;-68
2022/01/20 17:33:24;;;;;;;15.57;4.43;;;;;;;;;;10195618;29;20068;-68
2022/01/20 17:38:27;;;;;;;15.45;5.00;;;;;;;;;;10194079;29;20044;-67
2022/01/20 17:43:29;;;;;;;10.38;4.25;;;;;;;;;;10194764;29;20040;-67
2022/01/20 17:48:33;;;;;;;23.05;4.90;;;;;;;;;;10194264;29;20107;-66
2022/01/20 17:53:35;;;;;;;14.02;4.72;;;;;;;;;;10193915;29;20115;-67
2022/01/20 17:58:37;;;;;;;14.98;4.60;;;;;;;;;;10192882;29;20051;-68
2022/01/20 18:03:41;;;;;;;11.95;4.75;;;;;;;;;;10194746;29;20044;-67
2022/01/20 18:08:44;;;;;;;16.75;4.65;;;;;;;;;;10195197;29;20056;-67
2022/01/20 18:13:46;;;;;;;11.57;4.20;;;;;;;;;;10194223;29;20056;-68
2022/01/20 18:18:53;;;;;;;15.57;4.38;;;;;;;;;;10194792;29;20082;-68
2022/01/20 18:23:55;;;;;;;16.55;5.18;;;;;;;;;;10192890;29;20076;-67
2022/01/20 18:28:58;;;;;;;15.25;4.15;;;;;;;;;;10194059;29;20068;-67
2022/01/20 18:34:02;;;;;;;7.90;3.67;;;;;;;;;;10193663;29;20068;-68
2022/01/20 18:39:04;;;;;;;13.98;4.53;;;;;;;;;;10193797;29;20221;-67
2022/01/20 18:44:07;;;;;;;9.25;3.80;;;;;;;;;;10193213;29;20079;-67
2022/01/20 18:49:10;;;;;;;17.40;4.88;;;;;;;;;;10193551;29;20107;-69
2022/01/20 18:54:12;;;;;;;23.58;7.70;;;;;;;;;;10193388;29;20079;-68
2022/01/20 18:59:15;;;;;;;31.60;8.15;;;;;;;;;;10193625;29;20120;-68
2022/01/20 19:04:18;;;;;;;14.02;4.85;;;;;;;;;;10192794;29;20048;-69
2022/01/20 19:09:22;;;;;;;24.90;7.40;;;;;;;;;;10192983;29;20044;-67
2022/01/20 19:14:25;;;;;;;29.67;7.47;;;;;;;;;;10190870;29;20072;-68
2022/01/20 19:19:29;;;;;;;31.35;7.38;;;;;;;;;;10193753;29;20044;-68
2022/01/20 19:24:33;;;;;;;25.27;7.07;;;;;;;;;;10192200;29;20331;-68
2022/01/20 19:29:35;;;;;;;16.75;5.60;;;;;;;;;;10191316;29;20040;-68
2022/01/20 19:34:40;;;;;;;15.95;5.60;;;;;;;;;;10193508;29;20064;-69
2022/01/20 19:39:45;;;;;;;20.55;6.55;;;;;;;;;;10191324;29;20162;-68
2022/01/20 19:44:48;;;;;;;24.33;5.43;;;;;;;;;;10199709;29;20040;-68
2022/01/20 19:49:51;;;;;;;16.77;5.50;;;;;;;;;;10171210;29;20060;-69
2022/01/20 19:54:54;;;;;;;26.42;7.90;;;;;;;;;;10162528;29;20056;-68
2022/01/20 19:59:56;;;;;;;17.52;4.70;;;;;;;;;;10189934;29;20064;-68
2022/01/20 20:04:59;;;;;;;16.15;4.95;;;;;;;;;;10198754;29;20350;-69
2022/01/20 20:10:02;;;;;;;29.50;7.68;;;;;;;;;;10200145;29;20051;-68
2022/01/20 20:15:06;;;;;;;21.48;5.63;;;;;;;;;;10198093;29;20059;-67
2022/01/20 20:20:13;;;;;;;21.10;6.55;;;;;;;;;;10198810;29;20044;-68
2022/01/20 20:25:16;;;;;;;15.70;5.30;;;;;;;;;;10197807;29;20071;-68
2022/01/20 20:30:19;;;;;;;26.02;6.07;;;;;;;;;;10197788;29;20051;-67
2022/01/20 20:35:23;;;;;;;14.35;3.90;;;;;;;;;;10158879;29;20355;-67
2022/01/20 20:40:26;;;;;;;27.50;6.50;;;;;;;;;;10198383;29;20052;-67
2022/01/20 20:45:32;;;;;;;10.80;4.00;;;;;;;;;;10196681;29;20056;-69
2022/01/20 20:50:35;;;;;;;23.20;5.28;;;;;;;;;;10210796;29;20343;-68
2022/01/20 20:55:38;;;;;;;21.88;4.82;;;;;;;;;;10195943;29;20378;-67
2022/01/20 21:00:40;;;;;;;14.25;5.18;;;;;;;;;;10196553;29;20099;-66
2022/01/20 21:05:44;;;;;;;13.52;4.95;;;;;;;;;;10196810;29;20075;-67
2022/01/20 21:10:46;;;;;;;16.73;5.22;;;;;;;;;;10196523;29;20095;-67
2022/01/20 21:15:51;;;;;;;18.27;4.78;;;;;;;;;;10163451;29;20107;-68
2022/01/20 21:20:57;;;;;;;18.60;4.63;;;;;;;;;;10196127;29;20064;-68
2022/01/20 21:25:59;;;;;;;19.23;5.28;;;;;;;;;;10195644;29;20052;-67
2022/01/20 21:31:02;;;;;;;22.75;5.97;;;;;;;;;;10163870;29;20056;-68
2022/01/20 21:36:08;;;;;;;12.43;4.32;;;;;;;;;;10193954;29;20228;-68
2022/01/20 21:41:15;;;;;;;14.15;4.85;;;;;;;;;;10192416;29;20044;-67
2022/01/20 21:46:17;;;;;;;11.77;4.38;;;;;;;;;;10191922;29;20280;-68
2022/01/20 21:51:21;;;;;;;19.00;4.85;;;;;;;;;;10189160;29;20051;-67
2022/01/20 21:56:23;;;;;;;9.57;4.43;;;;;;;;;;10198314;29;20132;-69
2022/01/20 22:01:26;;;;;;;15.63;4.63;;;;;;;;;;10196678;29;20056;-67
2022/01/20 22:06:29;;;;;;;8.70;3.85;;;;;;;;;;10174352;29;20044;-67
2022/01/20 22:11:32;;;;;;;15.90;4.70;;;;;;;;;;10194190;29;20170;-67
2022/01/20 22:16:34;;;;;;;11.88;4.20;;;;;;;;;;10204558;29;20047;-68
2022/01/20 22:21:38;;;;;;;14.48;4.68;;;;;;;;;;10196616;29;20363;-67
2022/01/20 22:26:41;;;;;;;11.18;3.85;;;;;;;;;;10195065;29;20332;-65
2022/01/20 22:31:43;;;;;;;11.55;4.82;;;;;;;;;;10188632;29;20047;-67
2022/01/20 22:36:47;;;;;;;12.18;4.00;;;;;;;;;;10197847;29;20096;-67
2022/01/20 22:41:50;;;;;;;9.98;3.63;;;;;;;;;;10195082;29;20232;-68
2022/01/20 22:46:52;;;;;;;12.55;3.85;;;;;;;;;;10187014;29;20040;-66
2022/01/20 22:51:56;;;;;;;7.32;3.42;;;;;;;;;;10191555;29;20111;-68
2022/01/20 22:56:58;;;;;;;13.18;4.10;;;;;;;;;;10191936;29;20083;-68
2022/01/20 23:02:00;;;;;;;11.55;3.72;;;;;;;;;;10177377;29;20052;-67
2022/01/20 23:07:04;;;;;;;9.75;3.38;;;;;;;;;;10178594;29;20064;-67
2022/01/20 23:12:08;;;;;;;7.10;3.07;;;;;;;;;;10191204;29;20333;-67
2022/01/20 23:17:29;;;;;;;9.45;3.35;;;;;;;;;;10191137;29;20078;-68
2022/01/20 23:22:33;;;;;;;8.82;3.25;;;;;;;;;;10203983;29;20216;-68
2022/01/20 23:27:35;;;;;;;9.45;3.40;;;;;;;;;;10190880;29;20051;-68
2022/01/20 23:32:38;;;;;;;14.27;3.53;;;;;;;;;;10191424;29;20072;-68
2022/01/20 23:37:41;;;;;;;6.88;2.83;;;;;;;;;;10197684;29;20071;-67
2022/01/20 23:42:50;;;;;;;10.70;3.13;;;;;;;;;;10191660;29;20056;-68
2022/01/20 23:48:08;;;;;;;5.50;2.70;;;;;;;;;;10165967;29;20064;-66
2022/01/20 23:53:12;;;;;;;8.65;3.85;;;;;;;;;;10179966;29;20104;-67
2022/01/20 23:58:15;;;;;;;7.60;2.92;;;;;;;;;;10191343;29;20212;-68
